Latest Weather Observations for Mornington Island Airport

IDQ60801

Issued at 8:32 am EST Thursday 23 January 2020 (issued every 10 minutes, with the page automatically refreshed every 10 minutes)

About weather observations | Map of weather stations | Latest weather observations for QLD | Other Formats
Station Details ID: 029182 Name: MORNINGTON ISLAND AIRPORT Lat: -16.66 Lon: 139.17 Height: 9.52 m
Data from the previous 72 hours. | See also: Recent months at Mornington Island Airport
Date/Time
EST
Temp
°C
App
Temp
°C
Dew
Point
°C
Rel
Hum
%
Delta-T
°C
Wind Press
QNH
hPa
Press
MSL
hPa
Rain since
9am
mm
Dir  Spd
km/h
Gust
km/h
Spd
kts
Gust
kts
23/08:30am 28.6 33.5 25.2 82 2.4 NE 9 15 5 8 1007.8 1007.7 0.6
23/08:00am 29.3 32.8 24.8 77 3.2 N 15 19 8 10 1007.7 1007.6 0.6
23/07:30am 29.2 32.9 25.2 79 2.8 N 15 20 8 11 1007.4 1007.3 0.6
23/07:00am 28.9 32.1 25.5 82 2.4 NNW 19 26 10 14 1007.0 1006.9 0.6
23/06:30am 28.0 32.8 24.4 81 2.5 NNW 7 9 4 5 1006.7 1006.6 0.6
23/06:00am 28.0 32.6 24.2 80 2.6 NNW 7 9 4 5 1006.5 1006.4 0.6
23/05:30am 28.7 32.1 24.0 76 3.3 NW 13 17 7 9 1006.3 1006.2 0.6
23/05:00am 28.9 31.3 23.6 73 3.7 NW 17 22 9 12 1006.4 1006.3 0.6
23/04:30am 28.5 32.3 24.1 77 3.0 NNW 11 15 6 8 1006.3 1006.2 0.6
23/04:00am 28.8 30.2 23.5 73 3.7 NW 22 26 12 14 1006.4 1006.3 0.6
23/03:30am 28.8 30.4 23.9 75 3.4 NW 22 30 12 16 1006.1 1006.0 0.6
23/03:00am 28.6 30.3 24.6 79 2.8 NNW 24 30 13 16 1006.0 1005.9 0.6
23/02:30am 27.7 29.7 25.1 86 1.8 NNW 24 32 13 17 1006.0 1005.9 0.6
23/02:06am 27.8 26.1 25.0 85 2.0 NW 43 61 23 33 1006.6 1006.5 0.6
23/02:00am 28.0 25.3 25.0 84 2.1 NW 48 61 26 33 1006.9 1006.8 0.6
23/01:56am 28.9 27.8 25.3 81 2.5 NNW 41 59 22 32 1007.1 1007.0 0.4
23/01:51am 30.4 31.2 25.7 76 3.3 N 32 52 17 28 1007.3 1007.2 0.4
23/01:30am 30.4 33.0 25.5 75 3.5 N 22 35 12 19 1007.6 1007.5 0.4
23/01:00am 30.4 32.4 25.2 74 3.7 N 24 35 13 19 1007.7 1007.6 0.4
23/12:30am 30.4 32.3 25.0 73 3.8 N 24 32 13 17 1008.0 1007.9 0.4
23/12:00am 30.3 33.4 25.4 75 3.5 N 19 26 10 14 1008.3 1008.2 0.4
 
Date/Time
EST
Temp
°C
App
Temp
°C
Dew
Point
°C
Rel
Hum
%
Delta-T
°C
Wind Press
QNH
hPa
Press
MSL
hPa
Rain since
9am
mm
Dir  Spd
km/h
Gust
km/h
Spd
kts
Gust
kts
22/11:30pm 30.4 33.1 24.8 72 3.9 N 19 28 10 15 1008.3 1008.2 0.4
22/11:00pm 30.3 33.2 25.1 73 3.7 N 19 28 10 15 1008.4 1008.3 0.4
22/10:30pm 30.2 33.4 25.0 73 3.7 N 17 22 9 12 1008.2 1008.1 0.4
22/10:00pm 30.3 33.2 25.1 73 3.7 N 19 28 10 15 1008.2 1008.1 0.4
22/09:30pm 30.4 33.6 25.5 75 3.5 N 19 30 10 16 1007.9 1007.8 0.4
22/09:00pm 30.4 33.5 24.8 72 3.9 N 17 24 9 13 1007.7 1007.6 0.4
22/08:30pm 30.5 32.7 24.9 72 3.9 N 22 30 12 16 1007.6 1007.5 0.4
22/08:00pm 30.6 33.3 25.0 72 3.9 N 20 30 11 16 1007.4 1007.3 0.4
22/07:30pm 30.6 33.7 25.4 74 3.7 NNW 19 28 10 15 1006.8 1006.7 0.4
22/07:00pm 30.9 33.6 25.0 71 4.2 NNW 20 26 11 14 1006.5 1006.4 0.4
22/06:30pm 31.1 33.6 24.7 68 4.5 NNW 20 30 11 16 1006.1 1006.0 0.4
22/06:00pm 31.5 33.5 24.6 67 4.9 N 22 30 12 16 1005.6 1005.5 0.4
22/05:30pm 32.0 34.2 24.8 65 5.1 NNW 22 32 12 17 1005.5 1005.4 0.4
22/05:00pm 32.7 36.2 25.5 66 5.1 N 17 28 9 15 1005.5 1005.4 0.4
22/04:30pm 32.0 35.0 25.3 67 4.7 N 19 30 10 16 1005.7 1005.6 0.4
22/04:00pm 31.5 35.2 25.8 72 4.1 N 17 24 9 13 1005.9 1005.8 0.4
22/03:30pm 31.7 35.2 25.5 69 4.4 NNW 17 22 9 12 1006.1 1006.0 0.2
22/03:00pm 30.8 34.4 25.6 74 3.7 NNW 17 20 9 11 1006.5 1006.4 0.2
22/02:30pm 30.1 33.6 24.9 73 3.6 N 15 20 8 11 1006.8 1006.7 0.2
22/02:00pm 29.3 33.2 24.2 74 3.5 N 11 13 6 7 1007.3 1007.2 0.2
22/01:30pm 28.5 31.4 23.9 76 3.2 N 15 20 8 11 1007.8 1007.7 0.2
22/01:00pm 27.5 27.0 23.9 81 2.5 NNW 33 50 18 27 1008.3 1008.2 0.2
22/12:41pm 30.9 32.2 25.3 72 4.0 NNW 28 48 15 26 1008.4 1008.3 0.2
22/12:30pm 32.6 35.5 25.9 68 4.8 NNW 22 30 12 16 1008.4 1008.3 0.2
22/12:00pm 31.6 34.2 25.5 70 4.3 NNW 22 28 12 15 1009.2 1009.1 0.2
22/11:30am 32.2 34.6 25.8 69 4.6 NNW 24 32 13 17 1009.5 1009.4 0.2
22/11:00am 31.4 33.9 25.3 70 4.3 NNW 22 28 12 15 1009.6 1009.5 0.0
22/10:30am 32.1 35.1 26.2 71 4.2 NNW 22 30 12 16 1010.0 1009.9 0.0
22/10:00am 31.5 34.5 25.6 71 4.2 NW 20 24 11 13 1010.0 1009.9 0.0
22/09:30am 31.2 34.6 25.8 73 3.8 NW 19 22 10 12 1010.1 1010.0 0.0
22/09:00am 30.6 33.3 25.0 72 3.9 NW 20 26 11 14 1009.9 1009.8 1.6
22/08:30am 30.4 32.7 24.5 70 4.1 WNW 20 24 11 13 1009.6 1009.5 1.6
22/08:00am 30.1 32.7 24.0 70 4.2 WNW 17 20 9 11 1009.2 1009.1 1.6
22/07:30am 29.1 33.4 24.9 78 2.9 WNW 11 15 6 8 1009.0 1008.9 1.6
22/07:00am 28.8 32.8 24.4 77 3.1 W 11 13 6 7 1008.6 1008.5 1.6
22/06:30am 28.4 32.9 24.6 80 2.6 W 9 15 5 8 1008.2 1008.1 1.6
22/06:00am 28.3 31.5 24.3 79 2.8 WSW 15 20 8 11 1007.8 1007.7 1.6
22/05:30am 28.4 30.7 24.4 79 2.8 W 20 28 11 15 1007.5 1007.4 1.6
22/05:00am 27.4 32.1 25.6 90 1.3 WSW 11 19 6 10 1007.3 1007.2 1.6
22/04:30am 26.8 29.9 24.8 89 1.4 WSW 17 26 9 14 1007.6 1007.5 1.6
22/04:10am 26.4 28.1 24.6 90 1.2 WSW 24 35 13 19 1008.0 1007.9 1.6
22/04:00am 26.3 26.6 24.9 92 1.0 W 32 54 17 29 1008.3 1008.2 1.6
22/03:57am 26.4 26.3 25.2 93 0.8 W 35 54 19 29 1008.4 1008.3 1.4
22/03:56am 26.5 26.5 25.3 93 0.8 W 35 54 19 29 1008.4 1008.3 1.4
22/03:30am 27.2 25.6 24.5 85 1.9 WNW 41 63 22 34 1008.2 1008.1 0.0
22/03:28am 27.8 26.7 24.8 84 2.1 NW 39 63 21 34 1008.2 1008.1 0.0
22/03:25am 28.9 28.0 24.5 77 3.1 NW 37 63 20 34 1007.9 1007.8 0.0
22/03:00am 30.2 31.2 25.9 78 3.1 NNW 32 37 17 20 1007.8 1007.7 0.0
22/02:30am 30.5 31.1 25.3 74 3.7 NW 32 41 17 22 1007.9 1007.8 0.0
22/02:00am 30.5 31.7 25.1 73 3.8 NNW 28 37 15 20 1008.0 1007.9 0.0
22/01:30am 30.4 32.2 25.5 75 3.5 NNW 26 35 14 19 1008.6 1008.5 0.0
22/01:00am 30.4 32.7 25.7 76 3.3 NNW 24 37 13 20 1009.1 1009.0 0.0
22/12:30am 30.4 32.4 25.2 74 3.7 NNW 24 32 13 17 1009.3 1009.2 0.0
22/12:00am 30.4 33.2 25.2 74 3.7 NNW 20 28 11 15 1009.3 1009.2 0.0
 
Date/Time
EST
Temp
°C
App
Temp
°C
Dew
Point
°C
Rel
Hum
%
Delta-T
°C
Wind Press
QNH
hPa
Press
MSL
hPa
Rain since
9am
mm
Dir  Spd
km/h
Gust
km/h
Spd
kts
Gust
kts
21/11:30pm 30.3 33.2 25.1 73 3.7 NNW 19 26 10 14 1009.4 1009.3 0.0
21/11:00pm 30.3 33.4 25.4 75 3.5 NNW 19 24 10 13 1009.4 1009.3 0.0
21/10:30pm 30.3 33.4 25.4 75 3.5 NNW 19 24 10 13 1009.3 1009.2 0.0
21/10:00pm 30.1 33.8 25.2 75 3.5 N 15 19 8 10 1008.9 1008.8 0.0
21/09:30pm 30.0 33.5 24.9 74 3.6 N 15 19 8 10 1008.3 1008.2 0.0
21/09:00pm 30.0 33.5 24.9 74 3.6 N 15 24 8 13 1008.0 1007.9 0.0
21/08:30pm 30.1 33.1 24.7 73 3.8 N 17 24 9 13 1007.9 1007.8 0.0
21/08:00pm 30.2 32.8 23.9 69 4.4 NNW 17 24 9 13 1008.0 1007.9 0.0
21/07:30pm 30.3 32.9 24.0 69 4.4 N 17 26 9 14 1007.7 1007.6 0.0
21/07:00pm 30.7 31.8 23.6 66 4.9 NNW 24 32 13 17 1007.5 1007.4 0.0
21/06:30pm 30.9 32.0 24.3 68 4.6 NNW 26 32 14 17 1007.0 1006.9 0.0
21/06:00pm 31.2 32.7 24.3 66 4.8 NNW 24 32 13 17 1006.5 1006.4 0.0
21/05:30pm 31.8 33.5 24.7 66 5.0 NNW 24 32 13 17 1006.2 1006.1 0.0
21/05:00pm 31.8 34.4 24.9 67 4.9 NNW 20 26 11 14 1006.2 1006.1 0.0
21/04:30pm 31.8 34.9 25.4 69 4.5 NNW 19 24 10 13 1006.1 1006.0 0.0
21/04:00pm 32.1 35.1 25.2 67 4.9 NW 19 24 10 13 1006.4 1006.3 0.0
21/03:30pm 32.6 35.5 25.4 66 5.1 NW 20 26 11 14 1006.6 1006.5 0.0
21/03:00pm 32.1 34.9 25.2 67 4.9 NW 20 26 11 14 1006.9 1006.8 0.0
21/02:30pm 32.4 35.5 25.7 68 4.8 NW 20 26 11 14 1007.2 1007.1 0.0
21/02:00pm 32.3 34.5 24.9 65 5.2 NW 22 28 12 15 1007.3 1007.2 0.0
21/01:30pm 33.3 35.4 25.3 63 5.7 NW 24 32 13 17 1007.8 1007.7 0.0
21/01:00pm 32.6 35.5 24.4 62 5.8 WNW 17 20 9 11 1008.2 1008.1 0.0
21/12:30pm 32.9 37.1 24.1 60 6.2 S 9 15 5 8 1008.3 1008.2 0.0
21/12:00pm 32.6 35.7 23.5 58 6.3 SE 13 17 7 9 1008.8 1008.7 0.0
21/11:30am 32.0 35.3 23.8 62 5.7 SE 13 19 7 10 1009.3 1009.2 0.0
21/11:00am 31.4 34.7 23.8 64 5.3 SE 13 17 7 9 1009.7 1009.6 0.0
21/10:30am 30.7 34.0 23.9 67 4.7 SE 13 19 7 10 1010.0 1009.9 0.0
21/10:00am 30.5 34.3 23.4 66 4.9 SE 9 13 5 7 1010.3 1010.2 0.0
21/09:30am 30.1 33.8 23.3 67 4.7 S 9 13 5 7 1010.3 1010.2 0.0
21/09:00am 29.3 33.8 24.0 73 3.7 SW 7 11 4 6 1010.3 1010.2 0.4
21/08:30am 29.2 33.6 24.5 76 3.3 SW 9 15 5 8 1009.8 1009.7 0.4
21/08:00am 29.0 32.9 24.8 78 2.9 SW 13 20 7 11 1009.6 1009.5 0.4
21/07:30am 29.4 31.7 24.5 75 3.4 WSW 20 26 11 14 1009.5 1009.4 0.4
21/07:00am 29.2 32.0 24.3 75 3.4 WSW 17 26 9 14 1009.2 1009.1 0.4
21/06:30am 28.8 31.2 24.6 78 2.9 W 20 28 11 15 1008.7 1008.6 0.4
21/06:00am 28.5 30.2 23.4 74 3.5 W 20 26 11 14 1008.4 1008.3 0.4
21/05:30am 28.5 30.3 24.3 78 2.9 W 22 30 12 16 1008.0 1007.9 0.4
21/05:00am 29.4 31.6 24.0 72 3.7 W 19 26 10 14 1008.0 1007.9 0.4
21/04:30am 28.9 28.0 23.8 74 3.5 WNW 35 50 19 27 1007.9 1007.8 0.4
21/04:19am 30.0 29.0 24.9 74 3.6 WNW 39 46 21 25 1007.8 1007.7 0.4
21/04:00am 30.7 32.8 27.1 81 2.6 NW 30 35 16 19 1007.3 1007.2 0.4
21/03:30am 30.6 33.4 27.0 81 2.6 NW 26 33 14 18 1007.1 1007.0 0.4
21/03:00am 30.6 33.8 27.0 81 2.6 NW 24 30 13 16 1007.0 1006.9 0.4
21/02:30am 30.6 33.2 26.7 80 2.8 NNW 26 33 14 18 1007.2 1007.1 0.4
21/02:00am 30.5 33.3 26.9 81 2.6 NNW 26 32 14 17 1007.6 1007.5 0.4
21/01:30am 30.6 33.6 26.7 80 2.8 NNW 24 32 13 17 1007.8 1007.7 0.4
21/01:00am 30.3 34.3 26.7 81 2.6 NNW 19 26 10 14 1008.0 1007.9 0.4
21/12:30am 30.1 35.1 26.5 81 2.6 N 13 19 7 10 1008.1 1008.0 0.4
21/12:00am 29.9 34.7 26.3 81 2.6 N 13 19 7 10 1008.5 1008.4 0.4
 
Date/Time
EST
Temp
°C
App
Temp
°C
Dew
Point
°C
Rel
Hum
%
Delta-T
°C
Wind Press
QNH
hPa
Press
MSL
hPa
Rain since
9am
mm
Dir  Spd
km/h
Gust
km/h
Spd
kts
Gust
kts
20/11:30pm 29.7 34.7 25.4 78 3.0 ENE 9 15 5 8 1008.8 1008.7 0.4
20/11:00pm 28.1 33.2 24.7 82 2.4 SSE 6 9 3 5 1008.6 1008.5 0.4
20/10:30pm 28.1 33.0 24.7 82 2.4 SSE 7 7 4 4 1008.3 1008.2 0.4
20/10:00pm 28.0 33.3 24.4 81 2.5 SSE 4 6 2 3 1008.1 1008.0 0.4
20/09:30pm 28.2 33.1 24.4 80 2.6 SSE 6 9 3 5 1007.7 1007.6 0.4
20/09:00pm 28.7 33.8 24.0 76 3.3 NE 4 7 2 4 1007.3 1007.2 0.4
20/08:30pm 28.9 33.6 24.0 75 3.4 NE 6 9 3 5 1007.1 1007.0 0.4
20/08:00pm 29.2 33.5 23.6 72 3.9 NE 7 11 4 6 1007.0 1006.9 0.4
20/07:30pm 29.6 33.4 23.5 69 4.2 ENE 9 13 5 7 1006.3 1006.2 0.4
20/07:00pm 30.2 32.9 23.4 67 4.7 NE 15 20 8 11 1005.9 1005.8 0.4
20/06:30pm 30.9 32.8 23.5 64 5.1 NE 19 26 10 14 1005.0 1004.9 0.4
20/06:00pm 31.2 33.3 23.8 64 5.1 NNE 19 28 10 15 1004.8 1004.7 0.4
20/05:30pm 31.5 33.5 23.6 63 5.5 NE 19 26 10 14 1004.7 1004.6 0.4
20/05:00pm 31.4 33.2 23.5 63 5.5 NE 20 26 11 14 1004.7 1004.6 0.4
20/04:30pm 31.8 33.8 23.9 63 5.5 NNE 20 26 11 14 1005.0 1004.9 0.4
20/04:00pm 32.1 33.8 23.1 59 6.2 NNE 19 24 10 13 1005.2 1005.1 0.4
20/03:30pm 32.5 33.6 22.0 54 7.1 NNE 19 24 10 13 1005.6 1005.5 0.4
20/03:00pm 32.7 34.1 22.5 55 7.0 N 19 24 10 13 1006.0 1005.9 0.4
20/02:30pm 32.5 34.8 21.4 52 7.5 NE 11 17 6 9 1006.4 1006.3 0.4
20/02:00pm 32.4 34.8 22.2 55 7.0 NE 13 19 7 10 1006.6 1006.5 0.4
20/01:30pm 32.2 34.8 22.0 55 6.9 ENE 11 15 6 8 1006.8 1006.7 0.4
20/01:00pm 31.1 34.4 23.2 63 5.4 ENE 11 15 6 8 1007.6 1007.5 0.2
20/12:30pm 30.5 34.6 22.9 64 5.2 ENE 6 11 3 6 1007.8 1007.7 0.2
20/12:00pm 30.0 33.6 22.4 63 5.2 ENE 7 9 4 5 1007.9 1007.8 0.2
20/11:30am 28.6 33.0 23.5 74 3.5 ENE 6 7 3 4 1007.8 1007.7 0.2
20/11:00am 27.4 31.4 23.8 81 2.5 ENE 9 11 5 6 1008.1 1008.0 0.2
20/10:30am 27.8 32.2 23.4 77 3.0 SSW 6 7 3 4 1007.9 1007.8 0.2
20/10:00am 29.0 32.3 21.5 64 5.0 SSW 6 15 3 8 1007.7 1007.6 0.0
20/09:30am 29.4 30.3 21.6 63 5.2 WSW 19 32 10 17 1008.1 1008.0 0.0
20/09:00am 29.3 28.8 21.5 63 5.2 WSW 26 39 14 21 1008.4 1008.3 0.0

Other formats

Comma delimited format used in spreadsheet applications
http://www.bom.gov.au/fwo/IDQ60801/IDQ60801.94254.axf

JavaScript Object Notation format (JSON) in row-major order
http://www.bom.gov.au/fwo/IDQ60801/IDQ60801.94254.json

Data quality

Most of these data are generated automatically and are frequently updated. Quality checks on data are not normally performed. It is possible for incorrect values to appear. Refer to information at About Latest Weather Observations and please check the disclaimer before using these data.